createdAt,value
2019-05-17T00:01:17.450Z,7.17
2019-05-17T00:03:47.084Z,7.43
2019-05-17T00:06:16.926Z,7.60
2019-05-17T00:08:47.137Z,8.27
2019-05-17T00:11:16.661Z,7.93
2019-05-17T00:13:43.796Z,8.07
2019-05-17T00:16:12.969Z,8.67
2019-05-17T00:18:42.217Z,8.80
2019-05-17T00:21:11.439Z,8.13
2019-05-17T00:23:40.610Z,7.97
2019-05-17T00:26:09.783Z,8.53
2019-05-17T00:28:38.980Z,8.10
2019-05-17T00:31:08.170Z,8.40
2019-05-17T00:33:37.380Z,8.57
2019-05-17T00:36:07.021Z,8.17
2019-05-17T00:38:47.883Z,7.93
2019-05-17T00:41:06.918Z,7.33
2019-05-17T00:43:34.159Z,8.00
2019-05-17T00:46:03.355Z,7.80
2019-05-17T00:48:32.523Z,9.10
2019-05-17T00:51:02.496Z,8.30
2019-05-17T00:53:30.985Z,8.10
2019-05-17T00:56:00.200Z,9.80
2019-05-17T00:58:29.393Z,10.23
2019-05-17T01:00:58.596Z,9.97
2019-05-17T01:03:27.842Z,10.53
2019-05-17T01:05:57.014Z,10.07
2019-05-17T01:08:26.510Z,10.63
2019-05-17T01:10:56.620Z,10.77
2019-05-17T01:13:26.568Z,10.87
2019-05-17T01:15:53.952Z,9.97
2019-05-17T01:18:23.146Z,11.50
2019-05-17T01:20:52.332Z,12.10
2019-05-17T01:23:21.559Z,12.77
2019-05-17T01:25:50.729Z,12.40
2019-05-17T01:28:19.925Z,10.40
2019-05-17T01:30:49.119Z,13.73
2019-05-17T01:33:18.318Z,15.20
2019-05-17T01:35:47.488Z,13.93
2019-05-17T01:38:17.763Z,13.23
2019-05-17T01:40:46.346Z,13.00
2019-05-17T01:43:16.625Z,15.70
2019-05-17T01:45:44.244Z,13.20
2019-05-17T01:48:13.438Z,12.27
2019-05-17T01:50:42.658Z,11.17
2019-05-17T01:53:11.843Z,13.97
2019-05-17T01:55:41.090Z,16.07
2019-05-17T01:58:10.266Z,13.77
2019-05-17T02:00:39.445Z,15.63
2019-05-17T02:03:08.644Z,16.63
2019-05-17T02:05:37.827Z,17.40
2019-05-17T02:08:07.071Z,16.60
2019-05-17T02:10:37.563Z,15.20
2019-05-17T02:13:06.608Z,15.30
2019-05-17T02:15:37.465Z,14.43
2019-05-17T02:18:06.772Z,15.00
2019-05-17T02:20:33.566Z,14.77
2019-05-17T02:23:02.841Z,14.20
2019-05-17T02:25:32.076Z,15.87
2019-05-17T02:28:01.747Z,13.50
2019-05-17T02:30:33.502Z,13.97
2019-05-17T02:33:03.442Z,14.93
2019-05-17T02:35:28.867Z,12.50
2019-05-17T02:37:58.831Z,12.63
2019-05-17T02:40:28.030Z,12.70
2019-05-17T02:42:57.229Z,13.43
2019-05-17T02:45:26.435Z,11.37
2019-05-17T02:47:55.630Z,12.37
2019-05-17T02:50:26.108Z,14.00
2019-05-17T02:52:55.396Z,11.30
2019-05-17T02:55:24.579Z,12.83
2019-05-17T02:57:53.851Z,12.73
2019-05-17T03:00:23.959Z,11.67
2019-05-17T03:02:53.577Z,12.80
2019-05-17T03:05:23.263Z,13.60
2019-05-17T03:07:52.777Z,14.30
2019-05-17T03:10:28.106Z,14.27
2019-05-17T03:12:49.186Z,15.57
2019-05-17T03:15:18.397Z,17.00
2019-05-17T03:17:47.641Z,15.63
2019-05-17T03:20:16.819Z,15.57
2019-05-17T03:22:46.001Z,13.27
2019-05-17T03:25:15.262Z,14.67
2019-05-17T03:27:44.461Z,16.07
2019-05-17T03:30:18.345Z,14.30
2019-05-17T03:32:47.163Z,12.67
2019-05-17T03:35:16.643Z,12.53
2019-05-17T03:37:43.729Z,12.60
2019-05-17T03:40:27.402Z,13.40
2019-05-17T03:42:42.594Z,12.03
2019-05-17T03:45:08.976Z,13.63
2019-05-17T03:47:38.268Z,12.20
2019-05-17T03:50:07.886Z,11.50
2019-05-17T03:52:37.136Z,12.70
2019-05-17T03:55:06.422Z,12.47
2019-05-17T03:57:35.631Z,11.87
2019-05-17T04:00:05.000Z,11.83
2019-05-17T04:02:34.252Z,12.83
2019-05-17T04:05:04.182Z,14.30
2019-05-17T04:07:33.013Z,12.80
2019-05-17T04:10:04.493Z,11.87
2019-05-17T04:12:32.778Z,13.03
2019-05-17T04:15:03.377Z,12.07
2019-05-17T04:17:32.537Z,12.20
2019-05-17T04:19:58.870Z,12.17
2019-05-17T04:22:28.073Z,11.37
2019-05-17T04:24:57.250Z,13.50
2019-05-17T04:27:26.473Z,11.90
2019-05-17T04:29:55.644Z,12.03
2019-05-17T04:32:24.892Z,11.13
2019-05-17T04:34:54.080Z,12.40
2019-05-17T04:37:23.291Z,12.17
2019-05-17T04:39:52.699Z,12.70
2019-05-17T04:42:22.719Z,11.10
2019-05-17T04:44:52.686Z,10.07
2019-05-17T04:47:22.927Z,10.40
2019-05-17T04:49:53.307Z,9.70
2019-05-17T04:52:18.760Z,9.30
2019-05-17T04:54:47.933Z,10.70
2019-05-17T04:57:17.237Z,10.20
2019-05-17T04:59:46.402Z,9.03
2019-05-17T05:02:15.683Z,10.20
2019-05-17T05:04:44.916Z,10.73
2019-05-17T05:07:14.182Z,8.70
2019-05-17T05:09:43.442Z,7.60
2019-05-17T05:12:12.742Z,8.80
2019-05-17T05:14:43.205Z,6.23
2019-05-17T05:17:12.791Z,10.17
2019-05-17T05:19:42.272Z,9.97
2019-05-17T05:22:09.623Z,5.30
2019-05-17T05:24:38.839Z,9.70
2019-05-17T05:27:08.032Z,9.67
2019-05-17T05:29:37.200Z,10.10
2019-05-17T05:32:06.484Z,10.80
2019-05-17T05:34:35.726Z,11.93
2019-05-17T05:37:05.573Z,11.13
2019-05-17T05:39:34.783Z,9.17
2019-05-17T05:42:07.875Z,10.17
2019-05-17T05:44:33.240Z,9.80
2019-05-17T05:47:02.401Z,11.00
2019-05-17T05:49:32.114Z,9.27
2019-05-17T05:52:01.964Z,8.30
2019-05-17T05:54:32.022Z,9.20
2019-05-17T05:57:02.097Z,8.80
2019-05-17T05:59:28.802Z,7.77
2019-05-17T06:01:58.052Z,7.70
2019-05-17T06:04:27.477Z,8.60
2019-05-17T06:06:56.700Z,8.53
2019-05-17T06:09:25.937Z,8.73
2019-05-17T06:11:55.104Z,9.33
2019-05-17T06:14:24.308Z,8.70
2019-05-17T06:16:53.462Z,8.07
2019-05-17T06:19:22.669Z,9.00
2019-05-17T06:21:52.065Z,8.97
2019-05-17T06:24:22.532Z,10.17
2019-05-17T06:26:52.358Z,9.30
2019-05-17T06:29:22.022Z,9.47
2019-05-17T06:31:48.758Z,9.73
2019-05-17T06:34:17.987Z,9.33
2019-05-17T06:36:47.352Z,9.13
2019-05-17T06:39:16.577Z,9.50
2019-05-17T06:41:45.760Z,8.67
2019-05-17T06:44:14.962Z,10.47
2019-05-17T06:46:44.137Z,9.53
2019-05-17T06:49:13.392Z,9.77
2019-05-17T06:51:42.792Z,8.33
2019-05-17T06:54:12.068Z,10.47
2019-05-17T06:56:41.810Z,9.57
2019-05-17T06:59:10.185Z,9.10
2019-05-17T07:01:41.002Z,9.10
2019-05-17T07:04:10.247Z,8.60
2019-05-17T07:06:40.273Z,8.80
2019-05-17T07:09:07.194Z,9.40
2019-05-17T07:11:36.378Z,8.23
2019-05-17T07:14:05.535Z,7.40
2019-05-17T07:16:34.723Z,8.83
2019-05-17T07:19:03.953Z,8.10
2019-05-17T07:21:33.143Z,8.60
2019-05-17T07:24:02.373Z,10.30
2019-05-17T07:26:31.597Z,8.57
2019-05-17T07:29:00.765Z,10.43
2019-05-17T07:31:30.053Z,8.60
2019-05-17T07:33:59.836Z,8.50
2019-05-17T07:36:30.542Z,8.13
2019-05-17T07:38:57.645Z,8.80
2019-05-17T07:41:26.876Z,7.83
2019-05-17T07:43:56.076Z,8.40
2019-05-17T07:46:25.306Z,8.27
2019-05-17T07:48:54.477Z,7.70
2019-05-17T07:51:23.717Z,7.60
2019-05-17T07:53:52.937Z,8.07
2019-05-17T07:56:22.109Z,7.33
2019-05-17T07:58:51.260Z,7.33
2019-05-17T08:01:20.631Z,7.13
2019-05-17T08:03:50.218Z,8.40
2019-05-17T08:06:19.925Z,6.83
2019-05-17T08:08:50.187Z,5.90
2019-05-17T08:11:19.581Z,10.83
2019-05-17T08:13:46.769Z,11.63
2019-05-17T08:16:16.061Z,11.17
2019-05-17T08:18:45.261Z,10.07
2019-05-17T08:21:14.525Z,9.00
2019-05-17T08:23:44.160Z,7.03
2019-05-17T08:26:13.336Z,7.53
2019-05-17T08:28:42.527Z,7.90
2019-05-17T08:31:11.750Z,7.93
2019-05-17T08:33:40.908Z,8.23
2019-05-17T08:36:10.465Z,7.57
2019-05-17T08:38:39.654Z,8.13
2019-05-17T08:41:10.595Z,8.70
2019-05-17T08:43:45.755Z,8.17
2019-05-17T08:46:07.308Z,8.90
2019-05-17T08:48:36.488Z,8.17
2019-05-17T08:51:05.840Z,7.77
2019-05-17T08:53:35.142Z,7.33
2019-05-17T08:56:04.324Z,7.50
2019-05-17T08:58:33.561Z,7.30
2019-05-17T09:01:02.757Z,6.67
2019-05-17T09:03:31.932Z,6.53
2019-05-17T09:06:02.680Z,6.80
2019-05-17T09:08:30.457Z,6.93
2019-05-17T09:11:00.392Z,5.93
2019-05-17T09:13:29.857Z,5.90
2019-05-17T09:16:00.027Z,6.10
2019-05-17T09:18:27.245Z,5.87
2019-05-17T09:20:56.413Z,5.90
2019-05-17T09:23:25.597Z,6.23
2019-05-17T09:25:54.777Z,7.23
2019-05-17T09:28:23.942Z,7.10
2019-05-17T09:30:53.953Z,6.60
2019-05-17T09:33:23.148Z,7.57
2019-05-17T09:35:52.349Z,6.73
2019-05-17T09:38:21.559Z,6.87
2019-05-17T09:40:50.766Z,7.17
2019-05-17T09:43:20.493Z,5.93
2019-05-17T09:45:50.788Z,6.60
2019-05-17T09:48:19.615Z,9.53
2019-05-17T09:50:50.226Z,7.17
2019-05-17T09:53:16.963Z,8.17
2019-05-17T09:55:46.211Z,7.97
2019-05-17T09:58:15.413Z,6.80
2019-05-17T10:00:44.603Z,7.03
2019-05-17T10:03:13.864Z,7.70
2019-05-17T10:05:43.155Z,7.80
2019-05-17T10:08:12.346Z,7.93
2019-05-17T10:10:41.562Z,6.70
2019-05-17T10:13:10.914Z,8.27
2019-05-17T10:15:40.977Z,8.13
2019-05-17T10:18:11.061Z,7.87
2019-05-17T10:20:39.883Z,7.93
2019-05-17T10:23:10.199Z,9.53
2019-05-17T10:25:37.041Z,8.33
2019-05-17T10:28:06.294Z,7.07
2019-05-17T10:30:35.533Z,7.57
2019-05-17T10:33:05.384Z,7.87
2019-05-17T10:35:34.540Z,7.87
2019-05-17T10:38:03.728Z,7.93
2019-05-17T10:40:32.909Z,8.70
2019-05-17T10:43:02.240Z,8.00
2019-05-17T10:45:31.488Z,10.03
2019-05-17T10:48:00.863Z,9.77
2019-05-17T10:52:00.932Z,8.80
2019-05-17T10:54:30.245Z,8.50
2019-05-17T10:56:59.768Z,9.53
2019-05-17T10:59:28.840Z,9.63
2019-05-17T11:01:59.720Z,10.87
2019-05-17T11:04:27.264Z,11.63
2019-05-17T11:06:56.484Z,25.20
2019-05-17T11:09:25.749Z,11.47
2019-05-17T11:11:54.964Z,12.70
2019-05-17T11:14:24.189Z,11.43
2019-05-17T11:16:56.000Z,8.33
2019-05-17T11:19:25.266Z,8.83
2019-05-17T11:21:54.506Z,9.87
2019-05-17T11:24:23.705Z,8.43
2019-05-17T11:26:53.133Z,8.00
2019-05-17T11:29:22.316Z,8.30
2019-05-17T11:31:51.571Z,7.70
2019-05-17T11:34:24.933Z,7.90
2019-05-17T11:36:50.139Z,9.23
2019-05-17T11:39:19.329Z,8.43
2019-05-17T11:41:48.534Z,8.30
2019-05-17T11:44:18.336Z,7.50
2019-05-17T11:46:47.621Z,8.20
2019-05-17T11:49:16.867Z,8.40
2019-05-17T11:51:46.056Z,9.43
2019-05-17T11:54:15.455Z,13.80
2019-05-17T11:56:44.646Z,9.33
2019-05-17T11:59:13.833Z,8.60
2019-05-17T12:01:43.078Z,8.47
2019-05-17T12:04:12.248Z,9.53
2019-05-17T12:06:41.499Z,8.97
2019-05-17T12:09:10.683Z,8.40
2019-05-17T12:11:39.924Z,7.03
2019-05-17T12:14:09.121Z,8.70
2019-05-17T12:16:38.381Z,7.43
2019-05-17T12:19:07.596Z,7.30
2019-05-17T12:21:36.799Z,7.10
2019-05-17T12:24:05.986Z,8.77
2019-05-17T12:26:35.175Z,8.53
2019-05-17T12:29:04.410Z,10.33
2019-05-17T12:31:33.623Z,10.33
2019-05-17T12:34:02.951Z,12.73
2019-05-17T12:36:32.290Z,28.63
2019-05-17T12:39:02.394Z,15.23
2019-05-17T12:41:31.613Z,13.27
2019-05-17T12:44:00.791Z,11.27
2019-05-17T12:46:30.001Z,10.53
2019-05-17T12:49:01.894Z,10.67
2019-05-17T12:51:28.386Z,10.67
2019-05-17T12:53:57.648Z,9.30
2019-05-17T12:56:26.837Z,9.70
2019-05-17T12:58:56.163Z,9.73
2019-05-17T13:01:25.385Z,8.57
2019-05-17T13:03:54.549Z,9.10
2019-05-17T13:06:23.794Z,7.93
2019-05-17T13:08:53.110Z,8.07
2019-05-17T13:11:22.303Z,7.67
2019-05-17T13:13:51.505Z,7.90
2019-05-17T13:16:20.735Z,7.83
2019-05-17T13:18:49.912Z,8.83
2019-05-17T13:21:19.160Z,7.97
2019-05-17T13:23:48.350Z,8.67
2019-05-17T13:26:17.621Z,7.87
2019-05-17T13:28:46.805Z,9.77
2019-05-17T13:31:16.038Z,9.40
2019-05-17T13:33:51.138Z,10.87
2019-05-17T13:36:20.335Z,12.13
2019-05-17T13:38:49.514Z,11.60
2019-05-17T13:41:18.688Z,13.43
2019-05-17T13:43:48.130Z,14.53
2019-05-17T13:46:30.748Z,14.20
2019-05-17T13:48:46.438Z,12.50
2019-05-17T13:51:15.614Z,14.43
2019-05-17T13:53:45.103Z,14.30
2019-05-17T13:56:14.303Z,18.43
2019-05-17T13:58:43.851Z,13.40
2019-05-17T14:01:13.058Z,12.03
2019-05-17T14:03:42.350Z,10.27
2019-05-17T14:06:11.673Z,10.30
2019-05-17T14:08:40.940Z,10.07
2019-05-17T14:11:10.248Z,9.60
2019-05-17T14:13:39.453Z,10.20
2019-05-17T14:16:08.674Z,9.83
2019-05-17T14:18:37.909Z,10.10
2019-05-17T14:21:07.180Z,10.13
2019-05-17T14:23:36.336Z,9.60
2019-05-17T14:26:05.632Z,8.60
2019-05-17T14:28:34.912Z,9.70
2019-05-17T14:31:04.145Z,9.30
2019-05-17T14:33:33.401Z,8.30
2019-05-17T14:36:02.592Z,8.40
2019-05-17T14:38:31.825Z,8.27
2019-05-17T14:41:06.431Z,7.17
2019-05-17T14:43:31.861Z,7.67
2019-05-17T14:46:00.840Z,6.93
2019-05-17T14:48:30.077Z,7.10
2019-05-17T14:50:59.285Z,8.03
2019-05-17T14:53:28.519Z,7.60
2019-05-17T14:55:57.725Z,8.70
2019-05-17T14:58:26.892Z,8.20
2019-05-17T15:00:56.097Z,7.97
2019-05-17T15:03:25.300Z,7.43
2019-05-17T15:05:54.613Z,8.90
2019-05-17T15:08:23.837Z,9.90
2019-05-17T15:10:53.013Z,26.07
2019-05-17T15:13:22.224Z,17.07
2019-05-17T15:15:51.452Z,14.37
2019-05-17T15:18:20.666Z,13.30
2019-05-17T15:20:49.841Z,11.83
2019-05-17T15:23:20.009Z,8.87
2019-05-17T15:25:49.322Z,8.90
2019-05-17T15:28:18.926Z,9.13
2019-05-17T15:30:48.136Z,10.17
2019-05-17T15:33:17.358Z,9.70
2019-05-17T15:35:46.568Z,22.43
2019-05-17T15:38:15.812Z,12.10
2019-05-17T15:40:45.016Z,11.63
2019-05-17T15:43:14.285Z,10.33
2019-05-17T15:45:43.472Z,19.43
2019-05-17T15:48:12.712Z,19.57
2019-05-17T15:50:41.916Z,20.87
2019-05-17T15:53:11.128Z,18.17
2019-05-17T15:55:40.366Z,17.67
2019-05-17T15:58:09.573Z,14.90
2019-05-17T16:00:38.751Z,13.90
2019-05-17T16:03:07.958Z,12.07
2019-05-17T16:05:37.182Z,9.13
2019-05-17T16:08:06.350Z,10.50
2019-05-17T16:10:35.545Z,11.90
2019-05-17T16:13:04.751Z,12.97
2019-05-17T16:15:33.936Z,13.23
2019-05-17T16:18:03.136Z,16.33
2019-05-17T16:20:32.384Z,16.97
2019-05-17T16:23:01.670Z,16.17
2019-05-17T16:25:33.861Z,17.07
2019-05-17T16:28:00.083Z,18.63
2019-05-17T16:30:29.266Z,16.03
2019-05-17T16:32:58.449Z,16.70
2019-05-17T16:35:27.668Z,21.47
2019-05-17T16:37:57.023Z,21.60
2019-05-17T16:40:26.221Z,19.13
2019-05-17T16:42:55.591Z,20.53
2019-05-17T16:45:24.792Z,19.77
2019-05-17T16:47:54.053Z,20.83
2019-05-17T16:50:23.303Z,21.87
2019-05-17T16:53:05.101Z,24.57
2019-05-17T16:55:21.740Z,28.83
2019-05-17T16:57:50.917Z,18.60
2019-05-17T17:00:24.415Z,14.00
2019-05-17T17:02:53.632Z,11.53
2019-05-17T17:05:22.837Z,11.40
2019-05-17T17:07:52.121Z,12.50
2019-05-17T17:10:21.336Z,15.40
2019-05-17T17:12:50.549Z,17.43
2019-05-17T17:15:19.708Z,21.50
2019-05-17T17:17:49.025Z,24.17
2019-05-17T17:20:18.598Z,26.57
2019-05-17T17:22:47.792Z,25.20
2019-05-17T17:25:17.097Z,26.07
2019-05-17T17:27:46.272Z,26.47
2019-05-17T17:30:15.580Z,22.83
2019-05-17T17:32:44.847Z,23.07
2019-05-17T17:35:14.070Z,19.87
2019-05-17T17:37:43.280Z,21.17
2019-05-17T17:40:12.502Z,18.93
2019-05-17T17:42:41.719Z,19.23
2019-05-17T17:45:15.375Z,18.93
2019-05-17T17:47:45.016Z,21.97
2019-05-17T17:50:14.237Z,19.57
2019-05-17T17:52:43.657Z,17.67
2019-05-17T17:55:12.891Z,17.33
2019-05-17T17:57:42.097Z,18.23
2019-05-17T18:00:11.300Z,16.33
2019-05-17T18:02:40.562Z,19.53
2019-05-17T18:05:09.740Z,21.33
2019-05-17T18:07:38.981Z,24.03
2019-05-17T18:10:08.284Z,24.10
2019-05-17T18:12:37.607Z,25.70
2019-05-17T18:15:06.877Z,26.37
2019-05-17T18:17:39.320Z,21.17
2019-05-17T18:20:05.376Z,23.47
2019-05-17T18:22:34.595Z,20.50
2019-05-17T18:25:03.828Z,24.60
2019-05-17T18:27:33.015Z,31.70
2019-05-17T18:30:02.231Z,28.87
2019-05-17T18:32:31.447Z,27.40
2019-05-17T18:35:00.686Z,23.93
2019-05-17T18:37:29.879Z,21.03
2019-05-17T18:39:59.113Z,20.20
2019-05-17T18:42:28.287Z,24.00
2019-05-17T18:44:57.638Z,19.33
2019-05-17T18:47:26.880Z,14.57
2019-05-17T18:49:56.109Z,14.00
2019-05-17T18:52:25.269Z,13.97
2019-05-17T18:54:54.470Z,12.83
2019-05-17T18:57:23.661Z,13.73
2019-05-17T18:59:52.948Z,16.67
2019-05-17T19:02:23.664Z,15.37
2019-05-17T19:04:52.957Z,14.77
2019-05-17T19:07:22.155Z,12.53
2019-05-17T19:09:51.380Z,15.13
2019-05-17T19:12:20.612Z,17.23
2019-05-17T19:14:49.812Z,18.17
2019-05-17T19:17:19.004Z,20.00
2019-05-17T19:19:48.263Z,19.23
2019-05-17T19:22:17.548Z,20.97
2019-05-17T19:24:46.715Z,16.13
2019-05-17T19:27:15.921Z,16.53
2019-05-17T19:29:45.512Z,21.63
2019-05-17T19:32:14.850Z,15.97
2019-05-17T19:34:45.384Z,19.13
2019-05-17T19:37:14.586Z,17.20
2019-05-17T19:39:43.799Z,22.63
2019-05-17T19:42:13.104Z,21.30
2019-05-17T19:44:56.613Z,18.93
2019-05-17T19:47:11.648Z,14.20
2019-05-17T19:49:40.928Z,12.57
2019-05-17T19:52:10.199Z,12.97
2019-05-17T19:54:39.421Z,11.63
2019-05-17T19:57:09.687Z,18.93
2019-05-17T19:59:38.929Z,15.77
2019-05-17T20:02:08.241Z,11.77
2019-05-17T20:04:37.490Z,13.03
2019-05-17T20:07:06.740Z,11.00
2019-05-17T20:09:36.927Z,12.67
2019-05-17T20:12:06.213Z,16.33
2019-05-17T20:14:35.500Z,13.57
2019-05-17T20:17:04.721Z,13.60
2019-05-17T20:19:33.963Z,15.07
2019-05-17T20:22:03.207Z,18.13
2019-05-17T20:24:32.458Z,19.33
2019-05-17T20:27:02.172Z,20.03
2019-05-17T20:29:31.515Z,40.90
2019-05-17T20:32:01.583Z,26.17
2019-05-17T20:34:32.690Z,28.53
2019-05-17T20:37:01.946Z,29.40
2019-05-17T20:39:31.482Z,32.60
2019-05-17T20:42:00.779Z,33.43
2019-05-17T20:44:30.033Z,29.00
2019-05-17T20:46:59.314Z,29.70
2019-05-17T20:49:28.558Z,29.33
2019-05-17T20:51:57.829Z,29.57
2019-05-17T20:54:27.070Z,26.03
2019-05-17T20:56:56.261Z,20.40
2019-05-17T20:59:25.509Z,18.90
2019-05-17T21:01:54.770Z,18.63
2019-05-17T21:04:23.974Z,17.97
2019-05-17T21:06:53.303Z,17.57
2019-05-17T21:09:22.572Z,18.93
2019-05-17T21:11:51.925Z,20.63
2019-05-17T21:14:21.201Z,19.77
2019-05-17T21:16:50.574Z,18.00
2019-05-17T21:19:19.879Z,19.87
2019-05-17T21:21:49.124Z,19.73
2019-05-17T21:24:18.409Z,18.90
2019-05-17T21:26:47.702Z,21.67
2019-05-17T21:29:17.046Z,22.17
2019-05-17T21:31:46.265Z,22.57
2019-05-17T21:34:15.538Z,25.50
2019-05-17T21:36:44.962Z,26.97
2019-05-17T21:39:14.273Z,26.83
2019-05-17T21:41:43.694Z,27.70
2019-05-17T21:44:13.154Z,27.10
2019-05-17T21:46:42.532Z,29.67
2019-05-17T21:49:11.945Z,28.27
2019-05-17T21:51:41.198Z,26.80
2019-05-17T21:54:10.417Z,26.10
2019-05-17T21:56:39.616Z,22.87
2019-05-17T21:59:08.913Z,21.50
2019-05-17T22:01:38.126Z,23.10
2019-05-17T22:04:07.379Z,43.43
2019-05-17T22:06:36.657Z,24.50
2019-05-17T22:09:06.681Z,23.97
2019-05-17T22:11:35.982Z,29.00
2019-05-17T22:14:05.210Z,25.23
2019-05-17T22:16:34.469Z,25.10
2019-05-17T22:19:03.649Z,25.10
2019-05-17T22:21:32.974Z,23.00
2019-05-17T22:24:02.194Z,21.60
2019-05-17T22:26:31.444Z,22.53
2019-05-17T22:29:00.635Z,24.57
2019-05-17T22:31:29.854Z,27.63
2019-05-17T22:33:59.102Z,20.43
2019-05-17T22:36:28.354Z,21.00
2019-05-17T22:38:57.588Z,21.17
2019-05-17T22:41:26.846Z,21.80
2019-05-17T22:43:56.121Z,21.93
2019-05-17T22:46:35.470Z,20.87
2019-05-17T22:48:54.610Z,20.30
2019-05-17T22:51:24.889Z,20.37
2019-05-17T22:53:54.115Z,21.27
2019-05-17T22:56:23.381Z,20.17
2019-05-17T22:58:52.593Z,19.83
2019-05-17T23:01:21.805Z,19.50
2019-05-17T23:03:51.124Z,19.27
2019-05-17T23:06:20.314Z,18.20
2019-05-17T23:08:49.691Z,18.13
2019-05-17T23:11:18.912Z,17.13
2019-05-17T23:13:48.159Z,18.07
2019-05-17T23:16:18.485Z,18.43
2019-05-17T23:18:53.161Z,18.10
2019-05-17T23:21:22.532Z,17.90
2019-05-17T23:23:51.811Z,18.43
2019-05-17T23:26:21.022Z,17.37
2019-05-17T23:28:50.277Z,17.70
2019-05-17T23:31:19.485Z,17.10
2019-05-17T23:33:48.706Z,26.63
2019-05-17T23:36:17.958Z,24.43
2019-05-17T23:38:47.453Z,20.50
2019-05-17T23:41:16.710Z,23.80
2019-05-17T23:45:15.422Z,22.63
2019-05-17T23:47:44.695Z,20.33
2019-05-17T23:50:13.972Z,20.63
2019-05-17T23:52:43.648Z,21.10
2019-05-17T23:55:12.892Z,19.83
2019-05-17T23:57:42.991Z,20.50
